^^

Nearby METAR Reports

METAR (Meteorological Aerodrome Report) are Airport generated local weather condition reports for use, predominantly by pilots, these reports are also used as part of compliment of data sets required for Chatteris Weathers prediction software - WxSim.

EGUN - Mildenhall Raf, United Kingdom
Distance from station: ESE 19mi, 31km
Updated: 25/05/2019 05:36
Partly cloudy
Partly cloudy
 Wind from W
Wind: W 6 mph , 9 km/h
Temperature: 10°C
Wind Chill: 9°C
Dew Point: 10°C
Humidity: 100%
Barometer: 1017.6 hPa
Clouds: Partly cloudy
Visibility: 6 miles , 10 km
Cloud details: Partly cloudy 640 m
Partly cloudy 1676 m
2019/05/25 04:36 EGUN 250436Z AUTO 28005KT 9999 SCT021 SCT055 10/10 A3005 RMK AO2 SLP179 $
EGSC - Cambridge, United Kingdom
Distance from station: SSE 20mi, 32km
Updated: 24/05/2019 17:50
NOT Current
Partly cloudy
Partly cloudy
 Wind from WNW
Wind: WNW 15 mph , 24 km/h
Temperature: 21°C
Dew Point: 9°C
Humidity: 46%
Barometer: 1016 hPa
Clouds: Partly cloudy
Visibility: 6 miles , 10 km
Cloud details: Partly cloudy 1463 m
2019/05/24 16:50 EGSC 241650Z 30013KT 9999 SCT048TCU 21/09 Q1016
 
EGUL - Lakenheath Raf, United Kingdom
Distance from station: E 22mi, 36km
Updated: 25/05/2019 04:56
Clear
Clear
 Wind from W
Wind: W 3 mph , 6 km/h
Temperature: 10°C
Barometer: 1017.3 hPa
Clouds: Clear
Visibility: 6 miles , 10 km
2019/05/25 03:56 EGUL 250356Z AUTO 28003KT 9999 CLR 10/ A3004 RMK AO2 SLP176 $
EGXT - Wittering Raf, United Kingdom
Distance from station: WNW 24mi, 38km
Updated: 25/05/2019 04:50
Mostly cloudy
Mostly cloudy
 Wind from W
Wind: W 7 mph , 11 km/h
Temperature: 12°C
Dew Point: 10°C
Humidity: 88%
Barometer: 1017 hPa
Clouds: Mostly cloudy
Visibility: 6 miles , 10 km
Cloud details: Few Clouds 640 m
Mostly cloudy 1524 m
Mostly cloudy 2438 m
2019/05/25 03:50 EGXT 250350Z AUTO 28006KT 9999 FEW021/// BKN050/// BKN080/// 12/10 Q1017
 
EGYH - Holbeach (aut), United Kingdom
Distance from station: N 27mi, 44km
Updated: 24/05/2019 09:50
NOT Current
Few Clouds
Few Clouds
 Wind from NNW
Wind: NNW 15 mph , 24 km/h
Temperature: 17°C
Dew Point: 9°C
Humidity: 59%
Barometer: 1016 hPa
Clouds: Few Clouds
Visibility: 6 miles , 10 km
Cloud details: Few Clouds 914 m
2019/05/24 08:50 EGYH 240850Z 34013KT 9999 FEW030 17/09 Q1016 BLU
EGSS - Stansted Airport, United Kingdom
Distance from station: SE 11mi, 18km
Updated: 25/05/2019 05:20
Mostly cloudy
Mostly cloudy
 Wind from WNW
Wind: WNW 5 mph , 7 km/h
Temperature: 11°C
Dew Point: 9°C
Humidity: 88%
Barometer: 1018 hPa
Clouds: Mostly cloudy
Visibility: 6 miles , 10 km
Cloud details: Mostly cloudy 1463 m
2019/05/25 04:20 EGSS 250420Z AUTO 30004KT 9999 BKN048 11/09 Q1018
 
EGGW - Luton Airport, United Kingdom
Distance from station: WSW 19mi, 31km
Updated: 25/05/2019 05:20
Mostly cloudy
Mostly cloudy
 Wind from WNW
Wind: WNW 8 mph , 13 km/h
Temperature: 12°C
Dew Point: 10°C
Humidity: 88%
Barometer: 1018 hPa
Clouds: Mostly cloudy
Visibility: 6 miles , 10 km
Cloud details: Mostly cloudy 1494 m
2019/05/25 04:20 EGGW 250420Z 30007KT 9999 BKN049 12/10 Q1018
EGLL - London/Heathrow, United Kingdom
Distance from station: SSW 41mi, 66km
Updated: 25/05/2019 05:20
Mostly cloudy
Mostly cloudy
 Wind from WNW
Wind: WNW 3 mph , 6 km/h
Temperature: 14°C
Dew Point: 10°C
Humidity: 77%
Barometer: 1019 hPa
Clouds: Mostly cloudy
Visibility: 6 miles , 10 km
Cloud details: Mostly cloudy 1494 m
2019/05/25 04:20 EGLL 250420Z AUTO 30003KT 9999 BKN049 14/10 Q1019 NOSIG
 
EGKK - London/Gatwick A, United Kingdom
Distance from station: S 60mi, 97km
Updated: 25/05/2019 05:20
Clear
Clear
 Wind from varies
Wind: varies 2 mph , 4 km/h
Temperature: 14°C
Dew Point: 10°C
Humidity: 77%
Barometer: 1018 hPa
Summary: Clear
Visibility: greater than 7 miles , 10 km
2019/05/25 04:20 EGKK 250420Z VRB02KT CAVOK 14/10 Q1018
EGUY - Wyton Raf, United Kingdom
Distance from station: SW 11mi, 18km
Updated: 04/10/2015 09:50
NOT Current
Haze, Clear
Haze, Clear
 Wind from SSE
Wind: SSE 2 mph , 4 km/h
Temperature: 11°C
Dew Point: 7°C
Humidity: 77%
Barometer: 1014 hPa
Summary: Haze
Clouds: Clear
Visibility: 4 miles , 6 km
2015/10/04 08:50 EGUY 040850Z 15002KT 6000 HZ SKC 11/07 Q1014 WHT

Met Office METAR data link, decoding METAR data code.